Aérodrome :
LOGIN :

S'inscrire | Disclaimer

   EN    FR    IT 

 










Légende :    VFR   VFR Marginal   IFR   IFR Intensif   IFR Très Intensif
Visi : 
Plafond : 
>= 8 km
>= 3000ft
5 à 8 km
1000 à 3000 ft
1500m à 5 km
500 à 1000 ft
800 à 1500m
200 à 500 ft
< 800m
< 200 ft
Symboles :   Orages  Brouillard  Fortes neiges  Fortes précipitations  Vent > 20 kt
SIGMETs :   Divers  Orages  Givrage  Turbulence  Onde Orograph.  Cendres Volcan.







- Altitude de l'aérodrome : 1090 ft
- Code IATA : CFE
- Voir les cartes d'approche


LFLC - Clermont-Ferrand Auvergne

DERNIER METAR :
  • 221730Z AUTO 28003KT 240V310 CAVOK 25/08 Q1015 NOSIG

METARs EXPIRÉS :
  • 221700Z AUTO 20003KT CAVOK 24/12 Q1015 NOSIG
  • 221630Z AUTO 16004KT CAVOK 24/13 Q1015 NOSIG
  • 221600Z AUTO 16006KT CAVOK 24/10 Q1015 NOSIG
  • 221530Z AUTO 18004KT CAVOK 25/11 Q1015 NOSIG
  • 221500Z AUTO 15005KT CAVOK 24/11 Q1015 NOSIG

TAF TAF LFLC
Valide du 22 à 15h jusqu'au 23 à 15h UTC


221400Z 2215/2315 15007KT CAVOK
BECMG 2216/2218 24005KT
BECMG 2220/2222 VRB03KT
TEMPO 2304/2307 28017G27KT 6000 SHRA SCT056TCU BKN070
BECMG 2305/2307 BKN048
TEMPO 2307/2315 VRB20G30KT 4000 -TSRA SCT014 BKN032CB OVC065
ATIS : +33 4 73 62 74 38
Pas de NOTAMs connus pour ce terrain.



MET'MAP, la Météo Aéronautique d'un coup d'oeil ! - Copyright ORBIFLY Décembre 2007 - Disclaimer

ORBIFLY MET'MAP TEAM :

Programmation & Développement : Alexandra Zaïnal
Conception & Développement : Baudouin d'Aumeries
Co-Programmation & Développement : Marc-Olivier Méhu
Soutien technique & logistique : Manuel Goepfert

Contact : metmap@orbifly.com




SOURCES & CREDITS :

   NOAA